createdAt,value
2024-01-26T00:00:19.160Z,6.00
2024-01-26T00:02:47.580Z,5.90
2024-01-26T00:05:16.096Z,6.00
2024-01-26T00:07:45.794Z,5.90
2024-01-26T00:10:14.004Z,5.90
2024-01-26T00:12:43.520Z,5.90
2024-01-26T00:15:14.137Z,5.90
2024-01-26T00:17:42.665Z,5.80
2024-01-26T00:20:12.077Z,5.90
2024-01-26T00:22:40.194Z,5.90
2024-01-26T00:25:09.028Z,5.90
2024-01-26T00:27:37.388Z,5.90
2024-01-26T00:30:07.736Z,5.90
2024-01-26T00:32:37.682Z,5.90
2024-01-26T00:35:06.845Z,5.90
2024-01-26T00:37:34.979Z,5.90
2024-01-26T00:40:04.223Z,5.90
2024-01-26T00:42:32.454Z,5.90
2024-01-26T00:45:00.752Z,5.80
2024-01-26T00:47:28.788Z,5.90
2024-01-26T00:49:58.388Z,5.80
2024-01-26T00:52:26.600Z,5.80
2024-01-26T00:54:54.931Z,5.80
2024-01-26T00:57:23.032Z,5.90
2024-01-26T00:59:51.150Z,5.90
2024-01-26T01:02:19.621Z,5.90
2024-01-26T01:04:47.715Z,5.90
2024-01-26T01:07:17.347Z,5.90
2024-01-26T01:09:45.447Z,5.90
2024-01-26T01:12:13.538Z,5.90
2024-01-26T01:14:41.777Z,6.10
2024-01-26T01:17:12.192Z,6.20
2024-01-26T01:19:40.797Z,6.20
2024-01-26T01:22:09.089Z,6.10
2024-01-26T01:24:38.569Z,6.00
2024-01-26T01:27:06.941Z,5.90
2024-01-26T01:29:35.486Z,5.90
2024-01-26T01:32:03.619Z,5.90
2024-01-26T01:34:31.806Z,6.00
2024-01-26T01:36:59.876Z,6.00
2024-01-26T01:39:28.475Z,6.10
2024-01-26T01:41:58.040Z,6.00
2024-01-26T01:44:26.448Z,6.00
2024-01-26T01:46:54.633Z,6.10
2024-01-26T01:49:23.822Z,6.10
2024-01-26T01:51:54.622Z,6.10
2024-01-26T01:54:23.711Z,6.00
2024-01-26T01:56:54.583Z,6.00
2024-01-26T01:59:24.178Z,6.00
2024-01-26T02:01:52.481Z,6.00
2024-01-26T02:04:20.909Z,6.10
2024-01-26T02:06:55.732Z,6.10
2024-01-26T02:09:23.831Z,6.00
2024-01-26T02:11:52.652Z,6.00
2024-01-26T02:14:21.065Z,6.00
2024-01-26T02:16:58.445Z,6.00
2024-01-26T02:19:27.896Z,6.00
2024-01-26T02:21:56.389Z,6.00
2024-01-26T02:24:25.970Z,6.00
2024-01-26T02:26:54.523Z,6.00
2024-01-26T02:29:22.587Z,6.00
2024-01-26T02:31:50.667Z,6.00
2024-01-26T02:34:19.062Z,6.00
2024-01-26T02:36:47.383Z,6.00
2024-01-26T02:39:15.477Z,6.00
2024-01-26T02:41:44.926Z,6.00
2024-01-26T02:44:13.306Z,6.10
2024-01-26T02:46:42.764Z,6.00
2024-01-26T02:49:11.040Z,6.00
2024-01-26T02:51:39.365Z,6.00
2024-01-26T02:54:07.656Z,6.00
2024-01-26T02:56:36.035Z,6.00
2024-01-26T02:59:05.759Z,6.00
2024-01-26T03:01:33.836Z,6.00
2024-01-26T03:04:01.890Z,5.90
2024-01-26T03:06:29.993Z,5.90
2024-01-26T03:08:58.228Z,5.90
2024-01-26T03:11:37.625Z,5.90
2024-01-26T03:14:07.824Z,5.80
2024-01-26T03:16:36.645Z,5.80
2024-01-26T03:19:04.919Z,5.80
2024-01-26T03:21:33.277Z,5.70
2024-01-26T03:24:03.780Z,5.70
2024-01-26T03:26:32.010Z,5.60
2024-01-26T03:29:00.157Z,5.60
2024-01-26T03:31:30.223Z,5.60
2024-01-26T03:33:58.529Z,5.60
2024-01-26T03:36:26.729Z,5.60
2024-01-26T03:38:54.811Z,5.60
2024-01-26T03:41:22.930Z,5.60
2024-01-26T03:43:53.120Z,5.60
2024-01-26T03:46:22.305Z,5.60
2024-01-26T03:48:51.908Z,5.70
2024-01-26T03:51:20.555Z,5.60
2024-01-26T03:53:48.669Z,5.70
2024-01-26T03:56:16.704Z,5.70
2024-01-26T03:58:45.642Z,5.70
2024-01-26T04:01:13.899Z,5.80
2024-01-26T04:03:42.171Z,5.90
2024-01-26T04:06:11.783Z,6.00
2024-01-26T04:08:39.995Z,6.10
2024-01-26T04:11:08.122Z,6.30
2024-01-26T04:13:36.309Z,6.50
2024-01-26T04:16:04.774Z,6.60
2024-01-26T04:18:32.947Z,6.70
2024-01-26T04:21:01.159Z,6.80
2024-01-26T04:23:30.635Z,6.90
2024-01-26T04:25:58.884Z,7.10
2024-01-26T04:28:26.974Z,7.20
2024-01-26T04:30:55.648Z,7.20
2024-01-26T04:33:23.917Z,7.30
2024-01-26T04:35:52.239Z,7.30
2024-01-26T04:38:20.360Z,7.30
2024-01-26T04:40:49.877Z,7.30
2024-01-26T04:43:17.987Z,7.40
2024-01-26T04:45:46.059Z,7.30
2024-01-26T04:48:15.115Z,7.20
2024-01-26T04:50:43.309Z,7.10
2024-01-26T04:53:11.351Z,7.00
2024-01-26T04:55:39.420Z,7.00
2024-01-26T04:58:08.841Z,6.90
2024-01-26T05:00:36.979Z,6.90
2024-01-26T05:03:05.990Z,6.90
2024-01-26T05:05:34.245Z,7.00
2024-01-26T05:08:02.589Z,7.00
2024-01-26T05:10:30.684Z,7.00
2024-01-26T05:12:58.895Z,6.90
2024-01-26T05:15:28.609Z,7.00
2024-01-26T05:17:56.764Z,7.00
2024-01-26T05:20:24.931Z,7.00
2024-01-26T05:22:52.947Z,6.90
2024-01-26T05:25:21.032Z,6.80
2024-01-26T05:27:49.195Z,6.90
2024-01-26T05:30:17.545Z,6.90
2024-01-26T05:32:47.125Z,7.00
2024-01-26T05:35:16.374Z,7.00
2024-01-26T05:37:45.740Z,7.10
2024-01-26T05:40:17.067Z,7.10
2024-01-26T05:42:47.301Z,7.00
2024-01-26T05:45:17.619Z,7.10
2024-01-26T05:47:51.004Z,7.20
2024-01-26T05:50:24.547Z,7.30
2024-01-26T05:52:58.523Z,7.30
2024-01-26T05:55:29.728Z,7.20
2024-01-26T05:57:59.992Z,7.20
2024-01-26T06:00:29.858Z,7.30
2024-01-26T06:03:02.499Z,7.30
2024-01-26T06:05:33.405Z,7.30
2024-01-26T06:08:02.679Z,7.30
2024-01-26T06:10:31.416Z,7.40
2024-01-26T06:13:02.460Z,7.30
2024-01-26T06:15:30.911Z,7.40
2024-01-26T06:18:01.360Z,7.40
2024-01-26T06:20:35.825Z,7.50
2024-01-26T06:23:05.544Z,7.40
2024-01-26T06:25:35.365Z,7.50
2024-01-26T06:28:05.598Z,7.60
2024-01-26T06:30:35.269Z,7.50
2024-01-26T06:33:06.686Z,7.50
2024-01-26T06:35:36.265Z,7.50
2024-01-26T06:38:06.884Z,7.40
2024-01-26T06:40:38.800Z,7.40
2024-01-26T06:43:09.542Z,7.40
2024-01-26T06:45:38.327Z,7.50
2024-01-26T06:48:09.185Z,7.40
2024-01-26T06:50:39.694Z,7.40
2024-01-26T06:53:08.680Z,7.40
2024-01-26T06:55:38.393Z,7.30
2024-01-26T06:58:09.159Z,7.40
2024-01-26T07:00:43.921Z,7.40
2024-01-26T07:03:18.273Z,7.40
2024-01-26T07:05:46.898Z,7.40
2024-01-26T07:08:15.709Z,7.50
2024-01-26T07:10:45.076Z,7.40
2024-01-26T07:13:16.150Z,7.40
2024-01-26T07:15:44.638Z,7.40
2024-01-26T07:18:16.865Z,7.40
2024-01-26T07:20:49.692Z,7.40
2024-01-26T07:23:20.618Z,7.50
2024-01-26T07:25:49.267Z,7.50
2024-01-26T07:28:17.646Z,7.40
2024-01-26T07:30:47.446Z,7.40
2024-01-26T07:33:17.744Z,7.40
2024-01-26T07:35:48.133Z,7.50
2024-01-26T07:38:17.492Z,7.40
2024-01-26T07:40:48.022Z,7.50
2024-01-26T07:43:16.598Z,7.50
2024-01-26T07:45:47.027Z,7.50
2024-01-26T07:48:20.588Z,7.50
2024-01-26T07:50:50.122Z,7.50
2024-01-26T07:53:23.810Z,7.60
2024-01-26T07:55:55.898Z,7.70
2024-01-26T07:58:24.882Z,7.70
2024-01-26T08:00:57.294Z,7.70
2024-01-26T08:03:33.324Z,7.70
2024-01-26T08:06:02.169Z,7.80
2024-01-26T08:08:31.819Z,7.80
2024-01-26T08:11:02.921Z,7.90
2024-01-26T08:13:33.527Z,7.90
2024-01-26T08:16:05.128Z,8.00
2024-01-26T08:18:37.819Z,8.10
2024-01-26T08:21:07.628Z,8.00
2024-01-26T08:23:42.668Z,8.10
2024-01-26T08:28:55.573Z,8.20
2024-01-26T08:31:25.528Z,8.20
2024-01-26T08:33:58.716Z,8.30
2024-01-26T08:36:27.612Z,8.30
2024-01-26T08:38:58.166Z,8.30
2024-01-26T08:41:28.887Z,8.30
2024-01-26T08:43:57.657Z,8.30
2024-01-26T08:46:29.780Z,8.30
2024-01-26T08:48:59.682Z,8.40
2024-01-26T08:51:31.342Z,8.40
2024-01-26T08:53:59.773Z,8.50
2024-01-26T08:56:32.028Z,8.60
2024-01-26T08:59:01.247Z,8.70
2024-01-26T09:01:31.449Z,8.70
2024-01-26T09:04:02.434Z,8.80
2024-01-26T09:06:32.079Z,8.70
2024-01-26T09:09:03.947Z,8.90
2024-01-26T09:11:35.858Z,9.00
2024-01-26T09:14:05.024Z,9.10
2024-01-26T09:16:33.790Z,9.10
2024-01-26T09:19:05.420Z,9.20
2024-01-26T09:21:37.328Z,9.20
2024-01-26T09:24:07.149Z,9.30
2024-01-26T09:26:43.593Z,9.30
2024-01-26T09:29:13.288Z,9.40
2024-01-26T09:31:41.984Z,9.30
2024-01-26T09:34:12.675Z,9.40
2024-01-26T09:36:45.406Z,9.40
2024-01-26T09:39:14.817Z,9.40
2024-01-26T09:41:43.475Z,9.50
2024-01-26T09:44:13.818Z,9.60
2024-01-26T09:46:43.145Z,9.70
2024-01-26T09:49:13.341Z,9.70
2024-01-26T09:51:43.255Z,9.80
2024-01-26T09:54:13.687Z,9.80
2024-01-26T09:56:45.342Z,9.80
2024-01-26T09:59:14.230Z,10.00
2024-01-26T10:04:32.669Z,10.20
2024-01-26T10:07:01.488Z,10.20
2024-01-26T10:09:30.457Z,10.30
2024-01-26T10:12:00.082Z,10.40
2024-01-26T10:14:32.233Z,10.30
2024-01-26T10:17:01.846Z,10.30
2024-01-26T10:19:37.662Z,10.40
2024-01-26T10:22:07.706Z,10.40
2024-01-26T10:24:37.013Z,10.50
2024-01-26T10:27:05.728Z,10.60
2024-01-26T10:29:35.795Z,10.70
2024-01-26T10:32:06.838Z,10.80
2024-01-26T10:34:40.858Z,10.80
2024-01-26T10:37:17.430Z,10.60
2024-01-26T10:39:51.530Z,10.60
2024-01-26T10:42:22.318Z,10.70
2024-01-26T10:44:56.497Z,10.70
2024-01-26T10:47:28.767Z,10.80
2024-01-26T10:50:03.385Z,10.80
2024-01-26T10:52:33.589Z,10.80
2024-01-26T10:55:04.972Z,10.80
2024-01-26T10:57:35.733Z,10.90
2024-01-26T11:00:07.976Z,10.80
2024-01-26T11:02:38.686Z,10.80
2024-01-26T11:05:12.067Z,11.00
2024-01-26T11:07:41.169Z,11.00
2024-01-26T11:10:13.077Z,11.00
2024-01-26T11:12:45.860Z,11.00
2024-01-26T11:15:16.082Z,11.10
2024-01-26T11:18:01.102Z,11.10
2024-01-26T11:20:33.037Z,11.10
2024-01-26T11:23:04.069Z,11.30
2024-01-26T11:25:37.160Z,11.30
2024-01-26T11:28:07.845Z,11.40
2024-01-26T11:30:38.503Z,11.50
2024-01-26T11:33:21.915Z,11.50
2024-01-26T11:35:54.856Z,11.60
2024-01-26T11:38:25.671Z,11.70
2024-01-26T11:41:00.780Z,11.90
2024-01-26T11:43:30.999Z,12.00
2024-01-26T11:46:06.249Z,12.00
2024-01-26T11:48:38.784Z,12.30
2024-01-26T11:51:13.955Z,12.20
2024-01-26T11:53:46.083Z,12.60
2024-01-26T11:56:19.279Z,12.50
2024-01-26T11:58:48.834Z,12.40
2024-01-26T12:01:19.228Z,12.60
2024-01-26T12:03:49.098Z,12.60
2024-01-26T12:06:20.169Z,12.50
2024-01-26T12:08:49.750Z,12.30
2024-01-26T12:11:18.667Z,12.20
2024-01-26T12:13:49.976Z,12.20
2024-01-26T12:16:26.695Z,12.10
2024-01-26T12:18:59.303Z,12.10
2024-01-26T12:21:32.624Z,12.10
2024-01-26T12:24:01.136Z,12.10
2024-01-26T12:26:31.143Z,12.00
2024-01-26T12:28:59.672Z,12.00
2024-01-26T12:31:30.356Z,11.80
2024-01-26T12:34:04.918Z,11.70
2024-01-26T12:36:40.929Z,11.50
2024-01-26T12:39:16.067Z,11.50
2024-01-26T12:41:45.963Z,11.40
2024-01-26T12:44:16.458Z,11.40
2024-01-26T12:46:48.098Z,11.40
2024-01-26T12:49:18.038Z,11.20
2024-01-26T12:52:05.209Z,11.20
2024-01-26T12:54:37.165Z,11.00
2024-01-26T12:57:09.365Z,10.90
2024-01-26T12:59:39.058Z,10.90
2024-01-26T13:02:10.666Z,10.90
2024-01-26T13:04:39.848Z,10.80
2024-01-26T13:07:11.326Z,10.70
2024-01-26T13:09:44.450Z,10.80
2024-01-26T13:12:13.767Z,10.60
2024-01-26T13:14:42.432Z,10.50
2024-01-26T13:17:11.133Z,10.50
2024-01-26T13:19:40.599Z,10.50
2024-01-26T13:22:16.221Z,10.20
2024-01-26T13:24:48.478Z,10.20
2024-01-26T13:27:23.360Z,10.00
2024-01-26T13:29:53.196Z,10.10
2024-01-26T13:32:21.609Z,9.90
2024-01-26T13:34:54.624Z,9.90
2024-01-26T13:37:26.042Z,9.70
2024-01-26T13:39:54.757Z,9.70
2024-01-26T13:42:27.780Z,9.70
2024-01-26T13:44:56.409Z,9.60
2024-01-26T13:47:28.196Z,9.50
2024-01-26T13:50:01.783Z,9.50
2024-01-26T13:52:32.881Z,9.40
2024-01-26T13:55:01.733Z,9.30
2024-01-26T13:57:32.393Z,9.30
2024-01-26T14:00:20.511Z,9.20
2024-01-26T14:02:53.310Z,9.20
2024-01-26T14:05:24.161Z,9.10
2024-01-26T14:07:54.825Z,9.00
2024-01-26T14:10:24.078Z,9.10
2024-01-26T14:12:53.232Z,9.10
2024-01-26T14:15:26.479Z,8.80
2024-01-26T14:17:55.321Z,8.70
2024-01-26T14:20:25.300Z,8.70
2024-01-26T14:23:00.115Z,8.80
2024-01-26T14:25:31.339Z,8.60
2024-01-26T14:28:06.253Z,8.70
2024-01-26T14:30:37.208Z,8.60
2024-01-26T14:33:07.922Z,8.80
2024-01-26T14:35:36.796Z,8.50
2024-01-26T14:38:10.046Z,8.50
2024-01-26T14:40:41.095Z,8.60
2024-01-26T14:43:11.310Z,8.50
2024-01-26T14:45:40.520Z,8.50
2024-01-26T14:48:10.027Z,8.40
2024-01-26T14:50:38.719Z,8.60
2024-01-26T14:53:18.045Z,8.60
2024-01-26T14:55:47.838Z,8.60
2024-01-26T14:58:18.889Z,8.40
2024-01-26T15:00:49.383Z,8.30
2024-01-26T15:03:22.438Z,8.40
2024-01-26T15:05:52.344Z,8.50
2024-01-26T15:08:22.223Z,8.20
2024-01-26T15:10:51.923Z,8.30
2024-01-26T15:13:20.714Z,8.40
2024-01-26T15:15:49.482Z,8.50
2024-01-26T15:18:18.929Z,8.60
2024-01-26T15:20:48.408Z,8.60
2024-01-26T15:23:18.930Z,8.50
2024-01-26T15:25:52.127Z,8.50
2024-01-26T15:28:21.605Z,8.30
2024-01-26T15:30:52.572Z,8.20
2024-01-26T15:33:21.583Z,8.10
2024-01-26T15:35:50.549Z,8.00
2024-01-26T15:38:19.612Z,7.90
2024-01-26T15:40:52.519Z,7.80
2024-01-26T15:43:22.792Z,7.60
2024-01-26T15:45:51.373Z,7.60
2024-01-26T15:48:20.406Z,7.70
2024-01-26T15:50:49.709Z,7.80
2024-01-26T15:53:20.616Z,7.80
2024-01-26T15:55:51.562Z,7.80
2024-01-26T15:58:23.756Z,7.80
2024-01-26T16:00:53.796Z,7.90
2024-01-26T16:03:24.268Z,7.90
2024-01-26T16:05:53.820Z,7.90
2024-01-26T16:08:23.122Z,7.90
2024-01-26T16:10:53.253Z,7.90
2024-01-26T16:13:25.672Z,8.00
2024-01-26T16:15:55.614Z,8.00
2024-01-26T16:18:26.548Z,8.00
2024-01-26T16:20:55.681Z,8.00
2024-01-26T16:23:28.128Z,8.10
2024-01-26T16:25:59.663Z,8.00
2024-01-26T16:28:28.327Z,8.00
2024-01-26T16:31:01.631Z,8.10
2024-01-26T16:33:31.903Z,8.00
2024-01-26T16:36:02.353Z,8.10
2024-01-26T16:38:31.361Z,8.10
2024-01-26T16:41:02.176Z,8.00
2024-01-26T16:43:31.902Z,8.00
2024-01-26T16:46:03.888Z,8.10
2024-01-26T16:48:32.386Z,8.10
2024-01-26T16:51:02.997Z,8.20
2024-01-26T16:53:32.785Z,8.20
2024-01-26T16:56:05.207Z,8.20
2024-01-26T16:58:33.808Z,8.20
2024-01-26T17:01:03.410Z,8.20
2024-01-26T17:03:31.771Z,8.30
2024-01-26T17:06:00.686Z,8.20
2024-01-26T17:08:29.929Z,8.20
2024-01-26T17:11:00.517Z,8.20
2024-01-26T17:13:36.578Z,8.40
2024-01-26T17:16:08.584Z,8.40
2024-01-26T17:18:39.147Z,8.40
2024-01-26T17:21:08.792Z,8.40
2024-01-26T17:23:41.536Z,8.40
2024-01-26T17:26:10.232Z,8.40
2024-01-26T17:28:42.483Z,8.60
2024-01-26T17:31:11.892Z,8.50
2024-01-26T17:33:41.244Z,8.30
2024-01-26T17:36:10.953Z,8.40
2024-01-26T17:38:39.841Z,8.40
2024-01-26T17:41:08.300Z,8.20
2024-01-26T17:43:40.659Z,8.20
2024-01-26T17:46:13.434Z,8.10
2024-01-26T17:48:43.251Z,8.20
2024-01-26T17:51:12.302Z,8.10
2024-01-26T17:53:41.030Z,8.30
2024-01-26T17:56:10.489Z,8.30
2024-01-26T17:58:40.974Z,8.30
2024-01-26T18:01:13.962Z,8.10
2024-01-26T18:03:43.953Z,8.10
2024-01-26T18:06:15.705Z,8.20
2024-01-26T18:08:46.514Z,8.40
2024-01-26T18:11:15.353Z,8.40
2024-01-26T18:13:55.186Z,8.40
2024-01-26T18:16:25.689Z,8.50
2024-01-26T18:18:55.133Z,8.50
2024-01-26T18:21:24.996Z,8.50
2024-01-26T18:23:54.007Z,8.30
2024-01-26T18:26:24.055Z,8.60
2024-01-26T18:28:53.936Z,8.50
2024-01-26T18:31:22.999Z,8.40
2024-01-26T18:33:51.560Z,8.40
2024-01-26T18:36:23.458Z,8.30
2024-01-26T18:38:56.051Z,8.10
2024-01-26T18:41:29.972Z,7.80
2024-01-26T18:44:02.312Z,7.70
2024-01-26T18:46:32.030Z,7.80
2024-01-26T18:49:04.657Z,8.00
2024-01-26T18:51:34.311Z,8.10
2024-01-26T18:54:03.277Z,7.90
2024-01-26T18:56:31.607Z,7.90
2024-01-26T18:59:05.326Z,7.80
2024-01-26T19:01:34.898Z,7.70
2024-01-26T19:04:04.532Z,7.80
2024-01-26T19:06:34.022Z,7.70
2024-01-26T19:09:03.687Z,7.60
2024-01-26T19:11:32.538Z,7.70
2024-01-26T19:14:05.670Z,7.70
2024-01-26T19:16:37.508Z,7.70
2024-01-26T19:19:09.395Z,7.50
2024-01-26T19:21:38.712Z,7.40
2024-01-26T19:24:09.304Z,7.20
2024-01-26T19:26:38.019Z,7.30
2024-01-26T19:29:08.228Z,7.40
2024-01-26T19:31:37.891Z,7.40
2024-01-26T19:34:10.659Z,7.20
2024-01-26T19:36:40.200Z,7.20
2024-01-26T19:39:09.433Z,7.00
2024-01-26T19:41:37.964Z,7.10
2024-01-26T19:44:08.729Z,7.00
2024-01-26T19:46:45.884Z,6.80
2024-01-26T19:49:16.596Z,6.80
2024-01-26T19:51:50.775Z,6.70
2024-01-26T19:54:23.371Z,6.80
2024-01-26T19:56:52.052Z,6.60
2024-01-26T19:59:23.661Z,6.70
2024-01-26T20:01:51.999Z,6.60
2024-01-26T20:04:21.366Z,6.60
2024-01-26T20:06:49.923Z,6.40
2024-01-26T20:09:24.330Z,6.50
2024-01-26T20:11:53.164Z,6.30
2024-01-26T20:14:23.884Z,6.30
2024-01-26T20:16:52.203Z,6.20
2024-01-26T20:19:22.801Z,6.00
2024-01-26T20:21:57.068Z,6.00
2024-01-26T20:24:26.529Z,5.70
2024-01-26T20:26:55.885Z,5.60
2024-01-26T20:29:29.234Z,5.50
2024-01-26T20:31:59.770Z,5.50
2024-01-26T20:34:28.615Z,5.30
2024-01-26T20:36:59.931Z,5.20
2024-01-26T20:39:29.014Z,5.10
2024-01-26T20:42:01.310Z,5.00
2024-01-26T20:44:31.389Z,5.10
2024-01-26T20:47:00.819Z,5.00
2024-01-26T20:49:33.648Z,4.90
2024-01-26T20:52:03.571Z,4.70
2024-01-26T20:54:34.231Z,4.70
2024-01-26T20:57:06.260Z,4.50
2024-01-26T20:59:42.225Z,4.70
2024-01-26T21:02:13.691Z,4.50
2024-01-26T21:04:42.221Z,4.40
2024-01-26T21:07:12.235Z,4.50
2024-01-26T21:09:43.529Z,4.40
2024-01-26T21:12:12.345Z,4.20
2024-01-26T21:14:42.565Z,4.30
2024-01-26T21:17:12.593Z,4.30
2024-01-26T21:19:46.606Z,4.40
2024-01-26T21:22:17.689Z,4.10
2024-01-26T21:24:50.684Z,4.30
2024-01-26T21:27:21.363Z,4.20
2024-01-26T21:29:55.439Z,4.30
2024-01-26T21:32:26.659Z,4.10
2024-01-26T21:34:56.815Z,4.00
2024-01-26T21:37:26.240Z,3.80
2024-01-26T21:39:54.865Z,3.90
2024-01-26T21:42:26.310Z,3.70
2024-01-26T21:44:56.330Z,3.50
2024-01-26T21:47:25.776Z,3.20
2024-01-26T21:49:55.077Z,3.20
2024-01-26T21:52:29.719Z,3.30
2024-01-26T21:55:01.242Z,3.10
2024-01-26T21:57:33.016Z,3.00
2024-01-26T22:00:02.851Z,3.30
2024-01-26T22:02:35.851Z,3.50
2024-01-26T22:05:04.756Z,3.60
2024-01-26T22:07:35.406Z,3.60
2024-01-26T22:10:05.937Z,3.60
2024-01-26T22:12:37.750Z,3.60
2024-01-26T22:15:12.593Z,3.50
2024-01-26T22:17:43.307Z,3.50
2024-01-26T22:20:13.884Z,3.50
2024-01-26T22:22:43.921Z,3.50
2024-01-26T22:25:14.607Z,3.50
2024-01-26T22:27:47.198Z,3.50
2024-01-26T22:30:18.255Z,3.40
2024-01-26T22:32:46.677Z,3.40
2024-01-26T22:35:15.952Z,3.50
2024-01-26T22:37:45.687Z,3.40
2024-01-26T22:40:18.442Z,3.50
2024-01-26T22:42:48.359Z,3.40
2024-01-26T22:45:24.376Z,3.40
2024-01-26T22:47:52.911Z,3.30
2024-01-26T22:50:25.721Z,3.30
2024-01-26T22:52:56.112Z,3.10
2024-01-26T22:55:25.874Z,3.00
2024-01-26T22:57:57.632Z,2.80
2024-01-26T23:00:29.445Z,2.40
2024-01-26T23:02:58.879Z,2.40
2024-01-26T23:05:28.986Z,2.40
2024-01-26T23:07:57.884Z,2.40
2024-01-26T23:10:27.746Z,2.30
2024-01-26T23:12:59.481Z,2.20
2024-01-26T23:15:32.545Z,2.20
2024-01-26T23:18:05.445Z,2.10
2024-01-26T23:20:37.055Z,2.00
2024-01-26T23:23:07.398Z,2.10
2024-01-26T23:25:36.047Z,2.10
2024-01-26T23:28:06.593Z,2.10
2024-01-26T23:30:38.054Z,2.20
2024-01-26T23:33:07.433Z,2.20
2024-01-26T23:35:36.200Z,2.20
2024-01-26T23:38:07.409Z,2.10
2024-01-26T23:40:37.123Z,2.10
2024-01-26T23:43:09.625Z,1.90
2024-01-26T23:45:42.103Z,1.70
2024-01-26T23:48:11.795Z,1.90
2024-01-26T23:50:40.996Z,1.80
2024-01-26T23:53:10.721Z,1.80
2024-01-26T23:55:40.496Z,1.70
2024-01-26T23:58:09.651Z,1.60
